createdAt,value
2019-05-25T00:00:01.465Z,15.99
2019-05-25T00:01:01.453Z,16.01
2019-05-25T00:02:01.462Z,15.99
2019-05-25T00:03:01.448Z,15.97
2019-05-25T00:04:01.437Z,15.88
2019-05-25T00:05:01.420Z,15.84
2019-05-25T00:06:01.405Z,15.85
2019-05-25T00:07:01.410Z,15.79
2019-05-25T00:08:01.365Z,15.78
2019-05-25T00:09:01.385Z,15.81
2019-05-25T00:10:01.361Z,15.74
2019-05-25T00:11:01.336Z,15.79
2019-05-25T00:12:01.334Z,15.67
2019-05-25T00:13:01.314Z,15.68
2019-05-25T00:14:01.311Z,15.68
2019-05-25T00:15:01.382Z,15.74
2019-05-25T00:16:01.306Z,15.66
2019-05-25T00:17:01.298Z,15.68
2019-05-25T00:18:01.265Z,15.52
2019-05-25T00:19:01.270Z,15.60
2019-05-25T00:20:01.241Z,15.64
2019-05-25T00:21:01.230Z,15.46
2019-05-25T00:22:01.242Z,15.52
2019-05-25T00:23:01.232Z,15.54
2019-05-25T00:24:11.726Z,15.59
2019-05-25T00:25:02.199Z,15.52
2019-05-25T00:26:01.187Z,15.51
2019-05-25T00:27:01.181Z,15.48
2019-05-25T00:28:01.156Z,15.39
2019-05-25T00:29:01.148Z,15.41
2019-05-25T00:30:01.147Z,15.35
2019-05-25T00:31:01.122Z,15.42
2019-05-25T00:32:01.118Z,15.30
2019-05-25T00:33:01.113Z,15.39
2019-05-25T00:34:01.081Z,15.31
2019-05-25T00:35:01.071Z,15.36
2019-05-25T00:36:01.075Z,15.28
2019-05-25T00:37:01.062Z,15.23
2019-05-25T00:38:01.069Z,15.27
2019-05-25T00:39:01.038Z,15.20
2019-05-25T00:40:01.016Z,15.12
2019-05-25T00:41:01.010Z,15.17
2019-05-25T00:42:01.020Z,15.23
2019-05-25T00:43:01.000Z,15.17
2019-05-25T00:44:00.970Z,15.15
2019-05-25T00:45:00.952Z,15.05
2019-05-25T00:46:00.950Z,15.13
2019-05-25T00:47:00.940Z,15.12
2019-05-25T00:48:00.970Z,15.05
2019-05-25T00:49:00.930Z,15.05
2019-05-25T00:50:00.929Z,15.08
2019-05-25T00:51:00.906Z,15.09
2019-05-25T00:52:00.883Z,15.11
2019-05-25T00:53:00.890Z,15.08
2019-05-25T00:54:00.862Z,15.09
2019-05-25T00:55:00.857Z,15.09
2019-05-25T00:56:00.847Z,15.05
2019-05-25T00:57:00.839Z,15.01
2019-05-25T00:58:00.836Z,14.99
2019-05-25T00:59:00.811Z,14.88
2019-05-25T01:00:00.810Z,14.87
2019-05-25T01:01:00.838Z,14.90
2019-05-25T01:02:00.780Z,14.91
2019-05-25T01:03:00.795Z,14.75
2019-05-25T01:04:00.755Z,14.90
2019-05-25T01:05:00.731Z,14.78
2019-05-25T01:06:00.731Z,14.75
2019-05-25T01:07:00.713Z,14.69
2019-05-25T01:08:00.741Z,14.71
2019-05-25T01:09:00.765Z,14.74
2019-05-25T01:10:00.711Z,14.67
2019-05-25T01:11:00.676Z,14.67
2019-05-25T01:12:00.659Z,14.74
2019-05-25T01:13:00.654Z,14.67
2019-05-25T01:14:00.683Z,14.53
2019-05-25T01:15:00.633Z,14.61
2019-05-25T01:16:00.623Z,14.57
2019-05-25T01:17:00.600Z,14.56
2019-05-25T01:18:00.607Z,14.54
2019-05-25T01:19:00.576Z,14.46
2019-05-25T01:20:00.623Z,14.37
2019-05-25T01:21:00.569Z,14.38
2019-05-25T01:22:00.553Z,14.39
2019-05-25T01:23:00.549Z,14.42
2019-05-25T01:24:00.523Z,14.37
2019-05-25T01:25:00.532Z,14.34
2019-05-25T01:26:00.501Z,14.21
2019-05-25T01:27:00.493Z,14.28
2019-05-25T01:28:00.487Z,14.25
2019-05-25T01:29:00.475Z,14.25
2019-05-25T01:30:00.477Z,14.25
2019-05-25T01:31:00.518Z,14.17
2019-05-25T01:32:00.444Z,14.13
2019-05-25T01:33:00.446Z,14.07
2019-05-25T01:34:00.420Z,14.04
2019-05-25T01:35:00.415Z,14.01
2019-05-25T01:36:00.410Z,13.96
2019-05-25T01:37:00.380Z,14.04
2019-05-25T01:38:00.396Z,13.99
2019-05-25T01:39:00.362Z,13.99
2019-05-25T01:40:00.358Z,13.98
2019-05-25T01:41:00.358Z,13.87
2019-05-25T01:42:00.354Z,13.88
2019-05-25T01:43:00.332Z,13.84
2019-05-25T01:44:00.303Z,13.89
2019-05-25T01:45:00.302Z,13.81
2019-05-25T01:46:00.294Z,13.80
2019-05-25T01:47:00.295Z,13.89
2019-05-25T01:48:00.256Z,13.83
2019-05-25T01:49:00.251Z,13.79
2019-05-25T01:50:00.260Z,13.79
2019-05-25T01:51:00.267Z,13.73
2019-05-25T01:52:00.242Z,13.67
2019-05-25T01:53:00.226Z,13.65
2019-05-25T01:54:00.201Z,13.61
2019-05-25T01:55:00.583Z,13.63
2019-05-25T01:56:00.188Z,13.63
2019-05-25T01:57:00.156Z,13.61
2019-05-25T01:58:00.167Z,13.59
2019-05-25T01:59:00.140Z,13.54
2019-05-25T02:00:00.133Z,13.47
2019-05-25T02:01:00.133Z,13.46
2019-05-25T02:02:00.116Z,13.40
2019-05-25T02:03:00.116Z,13.37
2019-05-25T02:04:00.099Z,13.44
2019-05-25T02:05:00.092Z,13.40
2019-05-25T02:06:00.072Z,13.32
2019-05-25T02:07:00.055Z,13.33
2019-05-25T02:08:00.048Z,13.25
2019-05-25T02:09:00.054Z,13.25
2019-05-25T02:10:00.018Z,13.22
2019-05-25T02:10:59.999Z,13.29
2019-05-25T02:12:00.016Z,13.21
2019-05-25T02:12:59.999Z,13.12
2019-05-25T02:13:59.999Z,13.12
2019-05-25T02:14:59.973Z,13.07
2019-05-25T02:15:59.950Z,13.07
2019-05-25T02:16:59.945Z,13.09
2019-05-25T02:17:59.946Z,13.07
2019-05-25T02:18:59.941Z,13.14
2019-05-25T02:19:59.909Z,13.07
2019-05-25T02:20:59.902Z,12.97
2019-05-25T02:21:59.884Z,12.96
2019-05-25T02:22:59.875Z,12.97
2019-05-25T02:23:59.887Z,12.93
2019-05-25T02:25:14.486Z,12.93
2019-05-25T02:26:00.857Z,12.97
2019-05-25T02:26:59.842Z,12.92
2019-05-25T02:27:59.821Z,12.97
2019-05-25T02:28:59.812Z,12.89
2019-05-25T02:29:59.794Z,12.92
2019-05-25T02:30:59.794Z,12.92
2019-05-25T02:31:59.779Z,12.78
2019-05-25T02:32:59.783Z,12.70
2019-05-25T02:33:59.763Z,12.78
2019-05-25T02:34:59.753Z,12.74
2019-05-25T02:35:59.737Z,12.67
2019-05-25T02:36:59.800Z,12.66
2019-05-25T02:37:59.715Z,12.69
2019-05-25T02:38:59.716Z,12.71
2019-05-25T02:39:59.679Z,12.67
2019-05-25T02:40:59.674Z,12.70
2019-05-25T02:41:59.666Z,12.70
2019-05-25T02:42:59.652Z,12.69
2019-05-25T02:43:59.683Z,12.64
2019-05-25T02:44:59.653Z,12.66
2019-05-25T02:45:59.631Z,12.71
2019-05-25T02:46:59.618Z,12.63
2019-05-25T02:47:59.604Z,12.66
2019-05-25T02:48:59.617Z,12.64
2019-05-25T02:49:59.585Z,12.66
2019-05-25T02:50:59.568Z,12.69
2019-05-25T02:51:59.552Z,12.67
2019-05-25T02:52:59.545Z,12.66
2019-05-25T02:53:59.559Z,12.69
2019-05-25T02:54:59.521Z,12.60
2019-05-25T02:55:59.522Z,12.57
2019-05-25T02:56:59.504Z,12.49
2019-05-25T02:57:59.498Z,12.57
2019-05-25T02:58:59.493Z,12.52
2019-05-25T02:59:59.463Z,12.42
2019-05-25T03:00:59.450Z,12.38
2019-05-25T03:01:59.445Z,12.45
2019-05-25T03:02:59.431Z,12.41
2019-05-25T03:03:59.439Z,12.42
2019-05-25T03:04:59.422Z,12.41
2019-05-25T03:05:59.394Z,12.34
2019-05-25T03:06:59.383Z,12.42
2019-05-25T03:07:59.397Z,12.30
2019-05-25T03:08:59.390Z,12.39
2019-05-25T03:09:59.364Z,12.41
2019-05-25T03:10:59.361Z,12.29
2019-05-25T03:11:59.332Z,12.34
2019-05-25T03:12:59.315Z,12.29
2019-05-25T03:13:59.335Z,12.24
2019-05-25T03:14:59.310Z,12.27
2019-05-25T03:15:59.287Z,12.23
2019-05-25T03:16:59.296Z,12.26
2019-05-25T03:17:59.267Z,12.29
2019-05-25T03:18:59.276Z,12.16
2019-05-25T03:19:59.247Z,12.26
2019-05-25T03:20:59.235Z,12.27
2019-05-25T03:21:59.229Z,12.29
2019-05-25T03:22:59.264Z,12.26
2019-05-25T03:23:59.212Z,12.24
2019-05-25T03:24:59.187Z,12.27
2019-05-25T03:25:59.176Z,12.24
2019-05-25T03:26:59.152Z,12.29
2019-05-25T03:27:59.161Z,12.26
2019-05-25T03:28:59.172Z,12.27
2019-05-25T03:29:59.137Z,12.31
2019-05-25T03:30:59.123Z,12.27
2019-05-25T03:31:59.113Z,12.41
2019-05-25T03:32:59.088Z,12.39
2019-05-25T03:33:59.101Z,12.37
2019-05-25T03:34:59.091Z,12.44
2019-05-25T03:35:59.078Z,12.42
2019-05-25T03:36:59.058Z,12.44
2019-05-25T03:37:59.051Z,12.48
2019-05-25T03:38:59.024Z,12.56
2019-05-25T03:39:59.047Z,12.46
2019-05-25T03:40:59.022Z,12.54
2019-05-25T03:41:59.017Z,12.60
2019-05-25T03:42:58.991Z,12.64
2019-05-25T03:43:58.980Z,12.60
2019-05-25T03:44:58.967Z,12.66
2019-05-25T03:45:58.967Z,12.69
2019-05-25T03:46:58.932Z,12.75
2019-05-25T03:47:58.967Z,12.71
2019-05-25T03:48:58.952Z,12.70
2019-05-25T03:49:58.918Z,12.71
2019-05-25T03:50:58.914Z,12.69
2019-05-25T03:51:58.883Z,12.78
2019-05-25T03:52:58.890Z,12.89
2019-05-25T03:53:58.860Z,12.84
2019-05-25T03:54:58.861Z,12.85
2019-05-25T03:56:05.907Z,12.95
2019-05-25T03:56:59.827Z,13.02
2019-05-25T03:57:58.815Z,12.96
2019-05-25T03:58:58.821Z,13.03
2019-05-25T03:59:58.802Z,13.07
2019-05-25T04:00:58.799Z,13.02
2019-05-25T04:01:58.797Z,13.09
2019-05-25T04:02:58.766Z,13.20
2019-05-25T04:03:58.754Z,13.25
2019-05-25T04:04:58.746Z,13.43
2019-05-25T04:05:58.726Z,13.49
2019-05-25T04:06:58.721Z,13.65
2019-05-25T04:07:58.714Z,13.79
2019-05-25T04:08:58.721Z,13.83
2019-05-25T04:09:58.687Z,13.89
2019-05-25T04:10:58.667Z,13.92
2019-05-25T04:11:58.670Z,13.94
2019-05-25T04:12:58.678Z,13.94
2019-05-25T04:13:58.660Z,14.07
2019-05-25T04:14:58.636Z,14.16
2019-05-25T04:15:58.624Z,14.24
2019-05-25T04:16:58.599Z,14.44
2019-05-25T04:17:58.801Z,14.65
2019-05-25T04:18:58.585Z,14.93
2019-05-25T04:19:58.598Z,15.19
2019-05-25T04:20:58.572Z,15.35
2019-05-25T04:21:58.574Z,15.60
2019-05-25T04:22:58.552Z,15.67
2019-05-25T04:23:58.542Z,15.96
2019-05-25T04:24:58.528Z,16.11
2019-05-25T04:25:58.517Z,16.30
2019-05-25T04:26:58.508Z,16.41
2019-05-25T04:27:58.474Z,16.52
2019-05-25T04:28:58.494Z,16.73
2019-05-25T04:29:58.469Z,16.77
2019-05-25T04:30:58.456Z,16.80
2019-05-25T04:31:58.449Z,16.86
2019-05-25T04:32:58.437Z,16.86
2019-05-25T04:33:58.419Z,16.89
2019-05-25T04:34:58.431Z,16.77
2019-05-25T04:35:58.401Z,16.80
2019-05-25T04:36:58.386Z,16.75
2019-05-25T04:37:58.377Z,16.70
2019-05-25T04:38:58.371Z,16.78
2019-05-25T04:39:58.380Z,16.63
2019-05-25T04:40:58.348Z,16.74
2019-05-25T04:41:58.324Z,16.83
2019-05-25T04:42:58.314Z,16.88
2019-05-25T04:43:58.315Z,16.88
2019-05-25T04:44:58.316Z,16.89
2019-05-25T04:45:58.317Z,16.88
2019-05-25T04:46:58.316Z,16.90
2019-05-25T04:47:58.267Z,16.98
2019-05-25T04:48:58.246Z,16.99
2019-05-25T04:49:58.258Z,17.20
2019-05-25T04:50:58.219Z,17.36
2019-05-25T04:51:58.226Z,17.51
2019-05-25T04:52:58.209Z,17.64
2019-05-25T04:53:58.213Z,17.81
2019-05-25T04:54:58.204Z,17.88
2019-05-25T04:55:58.181Z,18.06
2019-05-25T04:56:58.160Z,18.00
2019-05-25T04:57:58.173Z,17.94
2019-05-25T04:58:58.168Z,18.03
2019-05-25T04:59:58.137Z,18.09
2019-05-25T05:00:58.123Z,18.25
2019-05-25T05:01:58.123Z,18.44
2019-05-25T05:02:58.095Z,18.64
2019-05-25T05:03:58.090Z,18.83
2019-05-25T05:04:58.099Z,18.95
2019-05-25T05:05:58.089Z,19.06
2019-05-25T05:06:58.066Z,19.28
2019-05-25T05:07:58.043Z,19.42
2019-05-25T05:08:58.029Z,19.63
2019-05-25T05:10:02.788Z,19.88
2019-05-25T05:10:59.017Z,19.87
2019-05-25T05:11:57.998Z,19.95
2019-05-25T05:12:58.000Z,19.76
2019-05-25T05:13:57.971Z,19.60
2019-05-25T05:14:57.963Z,19.58
2019-05-25T05:15:57.996Z,19.42
2019-05-25T05:16:57.956Z,19.46
2019-05-25T05:17:57.941Z,19.43
2019-05-25T05:18:57.940Z,19.46
2019-05-25T05:19:57.898Z,19.47
2019-05-25T05:20:57.920Z,19.28
2019-05-25T05:21:57.877Z,19.17
2019-05-25T05:22:57.880Z,19.28
2019-05-25T05:23:57.874Z,19.38
2019-05-25T05:24:57.874Z,19.73
2019-05-25T05:25:57.851Z,19.78
2019-05-25T05:26:57.852Z,20.21
2019-05-25T05:27:57.821Z,20.34
2019-05-25T05:28:57.807Z,20.49
2019-05-25T05:29:57.806Z,20.77
2019-05-25T05:30:57.806Z,20.76
2019-05-25T05:31:57.791Z,20.83
2019-05-25T05:32:57.775Z,21.02
2019-05-25T05:33:57.759Z,21.38
2019-05-25T05:34:57.751Z,21.45
2019-05-25T05:35:57.739Z,21.60
2019-05-25T05:36:57.743Z,21.72
2019-05-25T05:37:57.713Z,21.98
2019-05-25T05:38:57.713Z,21.98
2019-05-25T05:39:57.714Z,22.16
2019-05-25T05:40:57.673Z,22.17
2019-05-25T05:41:57.681Z,22.02
2019-05-25T05:42:57.677Z,22.12
2019-05-25T05:43:57.657Z,22.02
2019-05-25T05:44:57.664Z,22.16
2019-05-25T05:45:57.626Z,22.37
2019-05-25T05:46:57.617Z,22.52
2019-05-25T05:47:57.627Z,22.80
2019-05-25T05:48:57.616Z,23.07
2019-05-25T05:49:57.597Z,23.20
2019-05-25T05:50:57.570Z,23.64
2019-05-25T05:51:57.558Z,23.89
2019-05-25T05:52:57.537Z,24.26
2019-05-25T05:53:57.556Z,24.01
2019-05-25T05:54:57.561Z,24.07
2019-05-25T05:55:57.519Z,24.61
2019-05-25T05:57:11.144Z,24.95
2019-05-25T05:57:58.508Z,25.37
2019-05-25T05:58:57.483Z,24.82
2019-05-25T05:59:57.481Z,24.92
2019-05-25T06:00:57.462Z,24.63
2019-05-25T06:01:57.443Z,24.52
2019-05-25T06:02:57.448Z,24.10
2019-05-25T06:03:57.418Z,24.49
2019-05-25T06:04:57.421Z,23.64
2019-05-25T06:05:57.395Z,24.38
2019-05-25T06:06:57.401Z,23.92
2019-05-25T06:07:57.381Z,23.97
2019-05-25T06:08:57.372Z,23.19
2019-05-25T06:09:57.385Z,22.82
2019-05-25T06:10:57.353Z,22.82
2019-05-25T06:11:57.323Z,23.14
2019-05-25T06:12:57.328Z,24.05
2019-05-25T06:13:57.312Z,24.38
2019-05-25T06:14:57.298Z,23.97
2019-05-25T06:15:57.309Z,23.97
2019-05-25T06:16:57.302Z,24.56
2019-05-25T06:17:57.267Z,25.09
2019-05-25T06:18:57.264Z,25.15
2019-05-25T06:19:57.255Z,25.27
2019-05-25T06:20:57.262Z,24.90
2019-05-25T06:21:57.234Z,25.32
2019-05-25T06:22:57.236Z,25.56
2019-05-25T06:23:57.197Z,25.02
2019-05-25T06:24:57.184Z,24.20
2019-05-25T06:25:57.199Z,25.02
2019-05-25T06:26:57.160Z,24.07
2019-05-25T06:27:57.175Z,24.08
2019-05-25T06:28:57.177Z,25.13
2019-05-25T06:29:57.144Z,25.90
2019-05-25T06:30:57.160Z,26.68
2019-05-25T06:31:57.126Z,26.98
2019-05-25T06:32:57.103Z,27.41
2019-05-25T06:33:57.116Z,27.79
2019-05-25T06:34:57.095Z,27.95
2019-05-25T06:35:57.079Z,27.74
2019-05-25T06:36:57.077Z,27.82
2019-05-25T06:37:57.048Z,28.04
2019-05-25T06:38:57.039Z,28.16
2019-05-25T06:39:57.044Z,28.38
2019-05-25T06:40:57.023Z,28.53
2019-05-25T06:41:57.038Z,28.73
2019-05-25T06:42:56.998Z,28.97
2019-05-25T06:43:56.978Z,29.10
2019-05-25T06:44:56.981Z,29.28
2019-05-25T06:45:56.977Z,29.47
2019-05-25T06:46:56.964Z,27.96
2019-05-25T06:47:56.963Z,27.14
2019-05-25T06:48:56.950Z,27.96
2019-05-25T06:49:56.938Z,27.50
2019-05-25T06:50:56.922Z,26.37
2019-05-25T06:51:56.939Z,25.68
2019-05-25T06:52:58.083Z,25.10
2019-05-25T06:53:56.889Z,24.79
2019-05-25T06:54:56.878Z,24.50
2019-05-25T06:55:56.871Z,24.19
2019-05-25T06:56:56.853Z,24.05
2019-05-25T06:57:56.869Z,23.77
2019-05-25T06:58:56.830Z,23.49
2019-05-25T06:59:56.827Z,22.97
2019-05-25T07:00:56.818Z,22.65
2019-05-25T07:01:56.821Z,22.62
2019-05-25T07:02:56.812Z,22.34
2019-05-25T07:03:56.774Z,22.28
2019-05-25T07:04:56.804Z,22.74
2019-05-25T07:05:56.784Z,22.49
2019-05-25T07:06:56.812Z,23.46
2019-05-25T07:07:56.927Z,23.23
2019-05-25T07:08:57.561Z,23.04
2019-05-25T07:09:56.780Z,22.90
2019-05-25T07:10:58.660Z,23.23
2019-05-25T07:11:56.695Z,22.92
2019-05-25T07:12:56.692Z,22.72
2019-05-25T07:13:56.690Z,22.47
2019-05-25T07:14:56.673Z,22.37
2019-05-25T07:15:56.661Z,22.16
2019-05-25T07:16:56.649Z,22.01
2019-05-25T07:17:56.622Z,21.99
2019-05-25T07:18:56.609Z,21.83
2019-05-25T07:19:56.639Z,21.64
2019-05-25T07:20:56.614Z,21.29
2019-05-25T07:21:56.584Z,20.96
2019-05-25T07:22:56.595Z,20.81
2019-05-25T07:23:56.564Z,20.79
2019-05-25T07:24:56.577Z,20.77
2019-05-25T07:25:56.585Z,20.61
2019-05-25T07:26:56.556Z,20.61
2019-05-25T07:28:00.066Z,20.53
2019-05-25T07:28:56.501Z,20.46
2019-05-25T07:29:56.526Z,20.35
2019-05-25T07:30:56.517Z,20.23
2019-05-25T07:31:56.469Z,20.35
2019-05-25T07:32:56.451Z,20.35
2019-05-25T07:33:56.456Z,20.34
2019-05-25T07:34:56.438Z,20.46
2019-05-25T07:35:56.552Z,20.46
2019-05-25T07:36:56.423Z,20.38
2019-05-25T07:37:56.415Z,20.25
2019-05-25T07:38:56.395Z,20.25
2019-05-25T07:39:56.390Z,20.13
2019-05-25T07:40:56.386Z,20.10
2019-05-25T07:41:56.385Z,20.20
2019-05-25T07:42:56.355Z,20.53
2019-05-25T07:43:56.332Z,20.72
2019-05-25T07:44:56.329Z,20.80
2019-05-25T07:45:56.305Z,21.53
2019-05-25T07:46:56.311Z,21.76
2019-05-25T07:47:56.307Z,21.61
2019-05-25T07:48:56.294Z,21.35
2019-05-25T07:49:56.282Z,21.24
2019-05-25T07:50:56.268Z,21.06
2019-05-25T07:51:56.255Z,20.90
2019-05-25T07:52:56.254Z,20.66
2019-05-25T07:53:56.231Z,20.68
2019-05-25T07:54:56.225Z,20.53
2019-05-25T07:55:56.209Z,20.41
2019-05-25T07:56:56.199Z,20.28
2019-05-25T07:57:56.183Z,20.24
2019-05-25T07:58:56.153Z,20.10
2019-05-25T07:59:56.161Z,19.94
2019-05-25T08:00:56.167Z,19.90
2019-05-25T08:01:56.166Z,19.73
2019-05-25T08:02:56.149Z,19.58
2019-05-25T08:03:56.109Z,19.38
2019-05-25T08:04:56.100Z,19.42
2019-05-25T08:05:56.078Z,19.21
2019-05-25T08:06:56.099Z,19.11
2019-05-25T08:07:56.099Z,19.15
2019-05-25T08:08:56.070Z,18.95
2019-05-25T08:09:56.048Z,18.94
2019-05-25T08:10:56.032Z,18.91
2019-05-25T08:11:56.043Z,18.91
2019-05-25T08:12:56.044Z,18.90
2019-05-25T08:13:56.016Z,18.90
2019-05-25T08:14:56.004Z,18.80
2019-05-25T08:15:55.994Z,18.80
2019-05-25T08:16:55.975Z,18.79
2019-05-25T08:17:55.977Z,18.76
2019-05-25T08:18:55.950Z,18.68
2019-05-25T08:19:55.960Z,18.64
2019-05-25T08:20:55.932Z,18.61
2019-05-25T08:21:55.930Z,18.55
2019-05-25T08:22:55.936Z,18.74
2019-05-25T08:23:55.895Z,18.87
2019-05-25T08:24:55.885Z,19.05
2019-05-25T08:25:55.888Z,19.28
2019-05-25T08:26:55.883Z,19.40
2019-05-25T08:27:55.856Z,19.40
2019-05-25T08:28:55.849Z,19.38
2019-05-25T08:29:55.835Z,19.39
2019-05-25T08:30:55.818Z,19.31
2019-05-25T08:31:55.910Z,19.31
2019-05-25T08:32:55.803Z,19.18
2019-05-25T08:33:55.805Z,19.14
2019-05-25T08:34:55.802Z,19.05
2019-05-25T08:35:55.764Z,18.84
2019-05-25T08:36:55.758Z,18.79
2019-05-25T08:37:55.740Z,18.79
2019-05-25T08:38:55.734Z,18.64
2019-05-25T08:39:55.743Z,18.64
2019-05-25T08:40:55.719Z,18.58
2019-05-25T08:41:55.696Z,18.59
2019-05-25T08:42:55.686Z,18.58
2019-05-25T08:43:55.689Z,18.57
2019-05-25T08:44:55.684Z,18.46
2019-05-25T08:45:55.666Z,18.43
2019-05-25T08:46:55.775Z,18.42
2019-05-25T08:47:57.241Z,18.37
2019-05-25T08:48:55.636Z,18.39
2019-05-25T08:49:56.124Z,18.34
2019-05-25T08:50:55.603Z,18.44
2019-05-25T08:51:55.585Z,18.46
2019-05-25T08:52:55.631Z,18.64
2019-05-25T08:53:55.567Z,18.61
2019-05-25T08:54:56.651Z,18.84
2019-05-25T08:55:55.544Z,18.98
2019-05-25T08:56:55.627Z,18.99
2019-05-25T08:57:55.531Z,18.99
2019-05-25T08:58:55.797Z,19.08
2019-05-25T08:59:55.504Z,19.06
2019-05-25T09:00:55.509Z,19.08
2019-05-25T09:01:55.472Z,19.11
2019-05-25T09:02:55.461Z,19.18
2019-05-25T09:03:55.464Z,19.18
2019-05-25T09:04:55.447Z,19.36
2019-05-25T09:05:55.455Z,19.47
2019-05-25T09:06:55.427Z,19.53
2019-05-25T09:07:55.451Z,19.61
2019-05-25T09:08:55.408Z,19.93
2019-05-25T09:09:55.402Z,20.06
2019-05-25T09:10:55.401Z,20.31
2019-05-25T09:11:55.390Z,20.42
2019-05-25T09:12:55.368Z,20.54
2019-05-25T09:13:55.350Z,20.61
2019-05-25T09:14:55.340Z,20.61
2019-05-25T09:15:55.355Z,20.72
2019-05-25T09:16:55.346Z,20.72
2019-05-25T09:17:55.318Z,20.76
2019-05-25T09:18:55.296Z,20.62
2019-05-25T09:19:55.281Z,20.53
2019-05-25T09:20:55.272Z,20.65
2019-05-25T09:22:02.601Z,20.74
2019-05-25T09:22:56.249Z,20.79
2019-05-25T09:23:55.253Z,20.72
2019-05-25T09:24:55.232Z,20.76
2019-05-25T09:25:55.218Z,20.54
2019-05-25T09:26:55.222Z,20.61
2019-05-25T09:27:55.192Z,20.46
2019-05-25T09:29:03.958Z,20.51
2019-05-25T09:29:56.175Z,20.49
2019-05-25T09:30:55.195Z,20.53
2019-05-25T09:31:55.177Z,20.49
2019-05-25T09:32:55.206Z,20.41
2019-05-25T09:33:55.118Z,20.41
2019-05-25T09:34:55.127Z,20.35
2019-05-25T09:35:55.139Z,20.42
2019-05-25T09:36:55.111Z,20.61
2019-05-25T09:37:55.083Z,20.91
2019-05-25T09:38:55.076Z,21.21
2019-05-25T09:39:55.054Z,21.69
2019-05-25T09:40:55.060Z,21.85
2019-05-25T09:41:55.025Z,22.06
2019-05-25T09:42:55.033Z,22.32
2019-05-25T09:43:55.021Z,22.43
2019-05-25T09:44:55.013Z,22.62
2019-05-25T09:45:54.992Z,22.78
2019-05-25T09:46:54.975Z,22.74
2019-05-25T09:47:55.039Z,22.74
2019-05-25T09:48:54.966Z,22.59
2019-05-25T09:49:54.960Z,22.49
2019-05-25T09:50:54.963Z,22.39
2019-05-25T09:51:54.935Z,22.17
2019-05-25T09:52:54.902Z,21.95
2019-05-25T09:53:54.919Z,21.76
2019-05-25T09:54:55.705Z,21.57
2019-05-25T09:55:54.895Z,21.42
2019-05-25T09:56:54.891Z,21.35
2019-05-25T09:57:54.865Z,21.32
2019-05-25T09:58:54.876Z,21.29
2019-05-25T09:59:54.833Z,21.19
2019-05-25T10:00:54.830Z,21.34
2019-05-25T10:01:54.847Z,21.39
2019-05-25T10:02:54.860Z,21.63
2019-05-25T10:03:56.742Z,21.63
2019-05-25T10:04:54.817Z,21.67
2019-05-25T10:05:54.800Z,21.61
2019-05-25T10:06:54.762Z,21.61
2019-05-25T10:07:54.791Z,21.71
2019-05-25T10:08:54.743Z,21.53
2019-05-25T10:09:54.753Z,21.51
2019-05-25T10:10:54.743Z,21.51
2019-05-25T10:11:54.711Z,21.59
2019-05-25T10:12:54.699Z,21.56
2019-05-25T10:13:54.682Z,21.64
2019-05-25T10:14:54.694Z,21.69
2019-05-25T10:15:54.665Z,21.79
2019-05-25T10:16:54.659Z,21.76
2019-05-25T10:17:54.662Z,21.90
2019-05-25T10:18:54.643Z,21.85
2019-05-25T10:19:54.670Z,21.75
2019-05-25T10:20:54.637Z,21.85
2019-05-25T10:21:54.661Z,22.02
2019-05-25T10:22:54.600Z,22.19
2019-05-25T10:23:54.574Z,22.32
2019-05-25T10:24:54.560Z,22.65
2019-05-25T10:25:54.563Z,22.74
2019-05-25T10:26:54.542Z,22.86
2019-05-25T10:27:54.535Z,22.77
2019-05-25T10:28:54.530Z,22.74
2019-05-25T10:29:54.557Z,22.83
2019-05-25T10:30:54.515Z,22.96
2019-05-25T10:31:54.505Z,23.02
2019-05-25T10:32:54.483Z,23.09
2019-05-25T10:33:54.480Z,23.15
2019-05-25T10:34:54.473Z,22.75
2019-05-25T10:35:54.446Z,22.74
2019-05-25T10:36:54.461Z,22.54
2019-05-25T10:37:54.436Z,22.39
2019-05-25T10:38:54.411Z,22.16
2019-05-25T10:39:54.407Z,22.09
2019-05-25T10:40:54.398Z,21.94
2019-05-25T10:41:54.406Z,21.95
2019-05-25T10:42:54.406Z,22.01
2019-05-25T10:43:54.362Z,21.92
2019-05-25T10:44:54.372Z,21.81
2019-05-25T10:45:54.343Z,21.99
2019-05-25T10:46:54.361Z,21.91
2019-05-25T10:47:54.343Z,21.97
2019-05-25T10:48:54.344Z,21.91
2019-05-25T10:49:54.302Z,22.04
2019-05-25T10:50:54.304Z,21.94
2019-05-25T10:51:54.301Z,21.97
2019-05-25T10:52:54.293Z,21.83
2019-05-25T10:53:54.313Z,21.88
2019-05-25T10:54:54.250Z,21.94
2019-05-25T10:55:54.234Z,21.85
2019-05-25T10:56:54.272Z,21.97
2019-05-25T10:57:54.265Z,22.01
2019-05-25T10:58:54.198Z,22.22
2019-05-25T10:59:54.201Z,22.41
2019-05-25T11:00:54.177Z,22.53
2019-05-25T11:01:54.178Z,22.78
2019-05-25T11:02:54.191Z,23.19
2019-05-25T11:03:54.139Z,23.23
2019-05-25T11:04:54.136Z,23.40
2019-05-25T11:05:54.136Z,23.49
2019-05-25T11:06:54.115Z,23.71
2019-05-25T11:07:54.127Z,23.76
2019-05-25T11:08:54.091Z,23.80
2019-05-25T11:09:54.081Z,24.10
2019-05-25T11:10:54.064Z,24.02
2019-05-25T11:11:54.075Z,24.07
2019-05-25T11:12:54.060Z,24.10
2019-05-25T11:13:54.056Z,24.08
2019-05-25T11:14:54.034Z,24.13
2019-05-25T11:15:54.015Z,23.95
2019-05-25T11:16:54.004Z,23.67
2019-05-25T11:17:53.984Z,23.43
2019-05-25T11:18:53.988Z,23.47
2019-05-25T11:19:53.989Z,23.35
2019-05-25T11:20:53.961Z,23.29
2019-05-25T11:21:53.996Z,23.29
2019-05-25T11:22:53.932Z,23.23
2019-05-25T11:23:53.952Z,23.15
2019-05-25T11:24:53.922Z,23.09
2019-05-25T11:25:53.920Z,23.07
2019-05-25T11:26:53.907Z,23.14
2019-05-25T11:27:53.883Z,23.26
2019-05-25T11:28:53.881Z,23.45
2019-05-25T11:30:07.885Z,23.55
2019-05-25T11:30:54.845Z,23.52
2019-05-25T11:31:58.689Z,23.72
2019-05-25T11:32:54.842Z,23.87
2019-05-25T11:33:53.827Z,23.87
2019-05-25T11:34:53.821Z,23.79
2019-05-25T11:35:53.798Z,23.98
2019-05-25T11:36:53.775Z,23.79
2019-05-25T11:37:53.779Z,23.65
2019-05-25T11:38:53.777Z,23.45
2019-05-25T11:39:53.757Z,23.27
2019-05-25T11:40:53.734Z,23.05
2019-05-25T11:41:53.725Z,22.84
2019-05-25T11:42:53.723Z,22.69
2019-05-25T11:43:53.710Z,22.43
2019-05-25T11:44:53.713Z,22.47
2019-05-25T11:45:53.689Z,22.47
2019-05-25T11:46:53.694Z,22.57
2019-05-25T11:47:53.671Z,22.60
2019-05-25T11:48:53.637Z,22.60
2019-05-25T11:49:53.782Z,22.52
2019-05-25T11:50:53.737Z,22.50
2019-05-25T11:51:53.632Z,22.31
2019-05-25T11:52:53.701Z,22.04
2019-05-25T11:53:53.605Z,22.17
2019-05-25T11:54:53.578Z,22.12
2019-05-25T11:55:53.586Z,22.01
2019-05-25T11:56:53.595Z,22.12
2019-05-25T11:57:53.576Z,22.16
2019-05-25T11:58:53.544Z,22.19
2019-05-25T11:59:53.539Z,22.25
2019-05-25T12:00:53.521Z,22.35
2019-05-25T12:01:53.532Z,22.41
2019-05-25T12:02:53.497Z,22.43
2019-05-25T12:03:53.502Z,22.53
2019-05-25T12:04:53.514Z,22.56
2019-05-25T12:05:53.478Z,22.57
2019-05-25T12:06:53.463Z,22.62
2019-05-25T12:07:53.466Z,22.69
2019-05-25T12:08:53.441Z,22.78
2019-05-25T12:09:53.436Z,22.56
2019-05-25T12:10:53.423Z,22.65
2019-05-25T12:11:53.399Z,22.47
2019-05-25T12:12:53.408Z,22.34
2019-05-25T12:13:53.384Z,22.20
2019-05-25T12:14:53.382Z,22.09
2019-05-25T12:15:53.390Z,21.99
2019-05-25T12:16:53.355Z,21.85
2019-05-25T12:17:53.344Z,21.75
2019-05-25T12:18:53.359Z,21.50
2019-05-25T12:19:53.308Z,21.29
2019-05-25T12:20:53.325Z,21.24
2019-05-25T12:21:53.284Z,21.21
2019-05-25T12:22:53.357Z,21.35
2019-05-25T12:23:53.304Z,21.38
2019-05-25T12:24:53.270Z,21.45
2019-05-25T12:25:53.247Z,21.59
2019-05-25T12:26:53.248Z,21.61
2019-05-25T12:27:53.234Z,21.69
2019-05-25T12:28:53.239Z,21.88
2019-05-25T12:29:53.212Z,21.99
2019-05-25T12:30:53.211Z,21.95
2019-05-25T12:32:03.411Z,22.06
2019-05-25T12:32:54.167Z,22.13
2019-05-25T12:33:53.196Z,22.27
2019-05-25T12:34:53.154Z,22.28
2019-05-25T12:35:53.145Z,22.32
2019-05-25T12:36:53.146Z,22.56
2019-05-25T12:37:53.130Z,23.11
2019-05-25T12:38:53.130Z,23.14
2019-05-25T12:39:53.109Z,23.14
2019-05-25T12:40:54.145Z,23.19
2019-05-25T12:41:53.081Z,22.96
2019-05-25T12:42:53.065Z,22.78
2019-05-25T12:43:53.064Z,22.52
2019-05-25T12:44:53.045Z,22.46
2019-05-25T12:45:53.026Z,22.43
2019-05-25T12:46:53.020Z,22.38
2019-05-25T12:47:53.017Z,22.38
2019-05-25T12:48:53.022Z,22.32
2019-05-25T12:49:53.007Z,22.43
2019-05-25T12:50:52.992Z,22.47
2019-05-25T12:51:52.958Z,22.49